createdAt,value
2018-09-03T00:01:03.639Z,0.00
2018-09-03T00:04:03.688Z,0.00
2018-09-03T00:07:04.625Z,0.00
2018-09-03T00:10:03.552Z,0.00
2018-09-03T00:13:03.501Z,0.00
2018-09-03T00:16:03.472Z,0.00
2018-09-03T00:19:03.443Z,0.00
2018-09-03T00:22:03.430Z,0.00
2018-09-03T00:25:03.386Z,0.00
2018-09-03T00:28:03.359Z,0.00
2018-09-03T00:31:03.319Z,0.00
2018-09-03T00:34:03.280Z,0.00
2018-09-03T00:37:03.268Z,0.00
2018-09-03T00:40:03.236Z,0.00
2018-09-03T00:43:03.188Z,0.00
2018-09-03T00:46:03.184Z,0.00
2018-09-03T00:49:03.104Z,0.00
2018-09-03T00:52:03.119Z,0.00
2018-09-03T00:55:03.034Z,0.00
2018-09-03T00:58:03.020Z,0.00
2018-09-03T01:01:02.998Z,0.00
2018-09-03T01:04:02.957Z,0.00
2018-09-03T01:07:02.914Z,0.00
2018-09-03T01:10:02.875Z,0.00
2018-09-03T01:13:02.847Z,0.00
2018-09-03T01:16:02.828Z,0.00
2018-09-03T01:19:02.791Z,0.00
2018-09-03T01:22:02.750Z,0.00
2018-09-03T01:25:02.706Z,0.00
2018-09-03T01:28:02.693Z,0.00
2018-09-03T01:31:02.637Z,0.00
2018-09-03T01:34:02.598Z,0.00
2018-09-03T01:37:02.560Z,0.00
2018-09-03T01:40:02.542Z,0.00
2018-09-03T01:43:02.493Z,0.00
2018-09-03T01:46:02.497Z,0.00
2018-09-03T01:49:02.423Z,0.00
2018-09-03T01:52:02.410Z,0.00
2018-09-03T01:55:02.383Z,0.00
2018-09-03T01:58:02.344Z,0.00
2018-09-03T02:01:02.322Z,0.00
2018-09-03T02:04:02.276Z,0.00
2018-09-03T02:07:02.222Z,0.00
2018-09-03T02:10:02.219Z,0.00
2018-09-03T02:13:02.178Z,0.00
2018-09-03T02:16:02.145Z,0.00
2018-09-03T02:19:02.102Z,0.00
2018-09-03T02:22:02.077Z,0.00
2018-09-03T02:25:02.033Z,0.00
2018-09-03T02:28:02.004Z,0.00
2018-09-03T02:31:01.973Z,0.00
2018-09-03T02:34:01.949Z,0.00
2018-09-03T02:37:01.880Z,0.00
2018-09-03T02:40:01.888Z,0.00
2018-09-03T02:43:01.826Z,0.00
2018-09-03T02:46:02.239Z,0.00
2018-09-03T02:49:01.755Z,0.00
2018-09-03T02:52:01.779Z,0.00
2018-09-03T02:55:01.718Z,0.00
2018-09-03T02:58:01.673Z,0.00
2018-09-03T03:01:01.659Z,0.00
2018-09-03T03:04:01.609Z,0.00
2018-09-03T03:07:01.672Z,0.00
2018-09-03T03:10:01.550Z,0.00
2018-09-03T03:13:01.508Z,0.00
2018-09-03T03:16:01.470Z,0.00
2018-09-03T03:19:01.421Z,0.00
2018-09-03T03:22:01.391Z,0.00
2018-09-03T03:25:01.357Z,0.00
2018-09-03T03:28:01.341Z,0.00
2018-09-03T03:31:01.307Z,0.00
2018-09-03T03:34:01.273Z,0.00
2018-09-03T03:37:01.251Z,0.00
2018-09-03T03:40:01.188Z,0.00
2018-09-03T03:43:01.150Z,0.00
2018-09-03T03:46:01.146Z,0.00
2018-09-03T03:49:01.105Z,0.00
2018-09-03T03:52:01.100Z,0.00
2018-09-03T03:55:01.074Z,0.00
2018-09-03T03:58:01.031Z,0.00
2018-09-03T04:01:00.955Z,0.00
2018-09-03T04:04:00.927Z,0.00
2018-09-03T04:07:00.904Z,0.00
2018-09-03T04:10:00.877Z,0.00
2018-09-03T04:13:00.819Z,0.00
2018-09-03T04:16:00.823Z,0.00
2018-09-03T04:19:00.750Z,0.00
2018-09-03T04:22:00.747Z,0.00
2018-09-03T04:25:00.684Z,0.00
2018-09-03T04:28:00.681Z,0.00
2018-09-03T04:31:00.617Z,0.00
2018-09-03T04:34:00.612Z,0.00
2018-09-03T04:37:00.552Z,0.00
2018-09-03T04:40:00.548Z,0.00
2018-09-03T04:43:00.474Z,0.00
2018-09-03T04:46:00.472Z,0.00
2018-09-03T04:49:00.414Z,0.00
2018-09-03T04:52:00.388Z,5.62
2018-09-03T04:55:00.343Z,5.62
2018-09-03T04:58:00.349Z,5.62
2018-09-03T05:01:00.288Z,11.25
2018-09-03T05:04:00.270Z,11.25
2018-09-03T05:07:00.228Z,16.88
2018-09-03T05:10:00.194Z,16.88
2018-09-03T05:13:00.151Z,22.50
2018-09-03T05:16:00.122Z,22.50
2018-09-03T05:19:00.099Z,22.50
2018-09-03T05:22:00.074Z,22.50
2018-09-03T05:25:00.726Z,28.12
2018-09-03T05:27:59.992Z,28.12
2018-09-03T05:30:59.961Z,39.38
2018-09-03T05:33:59.915Z,50.62
2018-09-03T05:36:59.873Z,61.88
2018-09-03T05:39:59.893Z,67.50
2018-09-03T05:42:59.840Z,67.50
2018-09-03T05:45:59.822Z,67.50
2018-09-03T05:48:59.748Z,84.38
2018-09-03T05:51:59.740Z,90.00
2018-09-03T05:55:00.236Z,95.62
2018-09-03T05:57:59.734Z,101.25
2018-09-03T06:00:59.619Z,129.38
2018-09-03T06:03:59.624Z,157.50
2018-09-03T06:06:59.600Z,196.88
2018-09-03T06:09:59.574Z,202.50
2018-09-03T06:12:59.476Z,241.88
2018-09-03T06:15:59.495Z,264.38
2018-09-03T06:18:59.403Z,253.12
2018-09-03T06:21:59.395Z,258.75
2018-09-03T06:24:59.381Z,286.88
2018-09-03T06:27:59.346Z,292.50
2018-09-03T06:30:59.306Z,275.62
2018-09-03T06:33:59.261Z,236.25
2018-09-03T06:36:59.278Z,236.25
2018-09-03T06:39:59.290Z,275.62
2018-09-03T06:42:59.155Z,371.25
2018-09-03T06:45:59.180Z,450.00
2018-09-03T06:48:59.084Z,399.38
2018-09-03T06:51:59.067Z,427.50
2018-09-03T06:54:59.026Z,427.50
2018-09-03T06:57:59.001Z,416.25
2018-09-03T07:00:58.956Z,382.50
2018-09-03T07:03:58.934Z,354.38
2018-09-03T07:06:58.884Z,326.25
2018-09-03T07:09:58.893Z,320.62
2018-09-03T07:12:59.823Z,331.88
2018-09-03T07:15:58.822Z,320.62
2018-09-03T07:18:58.779Z,360.00
2018-09-03T07:21:58.720Z,450.00
2018-09-03T07:24:58.694Z,500.62
2018-09-03T07:27:58.697Z,568.12
2018-09-03T07:30:58.627Z,675.00
2018-09-03T07:33:58.602Z,686.25
2018-09-03T07:36:58.577Z,534.38
2018-09-03T07:39:58.541Z,506.25
2018-09-03T07:42:58.485Z,500.62
2018-09-03T07:45:58.472Z,450.00
2018-09-03T07:48:58.433Z,421.88
2018-09-03T07:51:58.399Z,405.00
2018-09-03T07:54:58.353Z,416.25
2018-09-03T07:57:58.326Z,433.12
2018-09-03T08:00:58.289Z,461.25
2018-09-03T08:03:58.291Z,551.25
2018-09-03T08:06:58.628Z,781.88
2018-09-03T08:09:58.227Z,765.00
2018-09-03T08:12:58.194Z,697.50
2018-09-03T08:15:58.130Z,703.12
2018-09-03T08:18:58.082Z,798.75
2018-09-03T08:21:58.100Z,663.75
2018-09-03T08:24:58.033Z,528.75
2018-09-03T08:27:58.004Z,506.25
2018-09-03T08:30:57.984Z,416.25
2018-09-03T08:33:57.993Z,427.50
2018-09-03T08:36:57.945Z,399.38
2018-09-03T08:39:57.943Z,410.62
2018-09-03T08:42:57.836Z,455.62
2018-09-03T08:45:57.863Z,472.50
2018-09-03T08:48:57.792Z,444.38
2018-09-03T08:51:57.784Z,455.62
2018-09-03T08:54:57.716Z,393.75
2018-09-03T08:57:57.714Z,348.75
2018-09-03T09:00:57.636Z,399.38
2018-09-03T09:03:57.614Z,511.88
2018-09-03T09:06:57.608Z,669.38
2018-09-03T09:09:57.570Z,950.62
2018-09-03T09:12:59.228Z,1085.62
2018-09-03T09:15:57.490Z,1389.38
2018-09-03T09:18:57.483Z,1800.00
2018-09-03T09:21:57.421Z,1423.12
2018-09-03T09:24:57.438Z,1288.12
2018-09-03T09:27:57.356Z,1046.25
2018-09-03T09:30:57.329Z,877.50
2018-09-03T09:33:57.290Z,995.62
2018-09-03T09:36:57.281Z,933.75
2018-09-03T09:39:57.262Z,973.12
2018-09-03T09:42:57.218Z,1147.50
2018-09-03T09:45:57.170Z,961.88
2018-09-03T09:48:57.139Z,725.62
2018-09-03T09:51:57.181Z,579.38
2018-09-03T09:54:57.180Z,534.38
2018-09-03T09:57:57.127Z,461.25
2018-09-03T10:00:57.005Z,399.38
2018-09-03T10:03:56.990Z,315.00
2018-09-03T10:06:56.937Z,309.38
2018-09-03T10:09:56.930Z,337.50
2018-09-03T10:12:56.887Z,450.00
2018-09-03T10:15:56.912Z,528.75
2018-09-03T10:18:56.797Z,517.50
2018-09-03T10:21:56.798Z,438.75
2018-09-03T10:24:56.732Z,399.38
2018-09-03T10:27:56.821Z,416.25
2018-09-03T10:30:56.699Z,455.62
2018-09-03T10:33:56.699Z,590.62
2018-09-03T10:36:56.705Z,956.25
2018-09-03T10:39:58.246Z,1344.38
2018-09-03T10:42:56.536Z,1147.50
2018-09-03T10:45:56.523Z,1119.38
2018-09-03T10:48:56.500Z,1096.88
2018-09-03T10:51:56.457Z,894.38
2018-09-03T10:54:56.417Z,714.38
2018-09-03T10:57:56.440Z,810.00
2018-09-03T11:00:56.361Z,742.50
2018-09-03T11:03:56.360Z,590.62
2018-09-03T11:06:56.392Z,495.00
2018-09-03T11:09:56.280Z,388.12
2018-09-03T11:12:56.233Z,371.25
2018-09-03T11:15:56.200Z,365.62
2018-09-03T11:18:56.169Z,393.75
2018-09-03T11:21:56.157Z,433.12
2018-09-03T11:24:56.107Z,472.50
2018-09-03T11:27:56.114Z,528.75
2018-09-03T11:30:56.048Z,624.38
2018-09-03T11:33:56.019Z,961.88
2018-09-03T11:36:55.969Z,1063.12
2018-09-03T11:39:55.945Z,883.12
2018-09-03T11:42:55.906Z,860.62
2018-09-03T11:45:55.881Z,973.12
2018-09-03T11:48:55.840Z,905.62
2018-09-03T11:51:55.816Z,888.75
2018-09-03T11:54:55.776Z,1181.25
2018-09-03T11:57:55.750Z,2559.38
2018-09-03T12:00:55.726Z,1867.50
2018-09-03T12:03:55.709Z,905.62
2018-09-03T12:06:55.665Z,838.12
2018-09-03T12:09:55.627Z,1046.25
2018-09-03T12:12:55.593Z,720.00
2018-09-03T12:15:55.641Z,753.75
2018-09-03T12:18:55.574Z,1029.38
2018-09-03T12:21:55.518Z,1080.00
2018-09-03T12:24:55.502Z,759.38
2018-09-03T12:27:55.477Z,624.38
2018-09-03T12:30:55.422Z,680.62
2018-09-03T12:33:55.369Z,641.25
2018-09-03T12:36:55.382Z,669.38
2018-09-03T12:39:55.355Z,646.88
2018-09-03T12:42:55.303Z,607.50
2018-09-03T12:45:55.251Z,618.75
2018-09-03T12:48:55.223Z,613.12
2018-09-03T12:51:55.222Z,545.62
2018-09-03T12:54:55.163Z,472.50
2018-09-03T12:57:55.141Z,433.12
2018-09-03T13:00:55.142Z,427.50
2018-09-03T13:03:55.053Z,405.00
2018-09-03T13:06:55.031Z,489.38
2018-09-03T13:09:54.995Z,506.25
2018-09-03T13:12:54.944Z,478.12
2018-09-03T13:15:54.988Z,444.38
2018-09-03T13:18:54.976Z,472.50
2018-09-03T13:21:54.978Z,568.12
2018-09-03T13:24:55.039Z,601.88
2018-09-03T13:27:57.854Z,500.62
2018-09-03T13:30:54.841Z,427.50
2018-09-03T13:33:54.773Z,410.62
2018-09-03T13:36:54.727Z,450.00
2018-09-03T13:39:54.665Z,517.50
2018-09-03T13:42:54.618Z,585.00
2018-09-03T13:45:54.637Z,669.38
2018-09-03T13:48:54.582Z,523.12
2018-09-03T13:51:54.543Z,478.12
2018-09-03T13:54:54.575Z,618.75
2018-09-03T13:57:54.492Z,675.00
2018-09-03T14:00:54.447Z,646.88
2018-09-03T14:03:54.418Z,568.12
2018-09-03T14:06:54.473Z,495.00
2018-09-03T14:09:54.339Z,450.00
2018-09-03T14:12:54.302Z,495.00
2018-09-03T14:15:54.296Z,517.50
2018-09-03T14:18:54.239Z,551.25
2018-09-03T14:21:54.243Z,500.62
2018-09-03T14:24:54.199Z,483.75
2018-09-03T14:27:54.155Z,478.12
2018-09-03T14:30:54.122Z,495.00
2018-09-03T14:33:54.102Z,450.00
2018-09-03T14:36:54.142Z,444.38
2018-09-03T14:39:54.020Z,483.75
2018-09-03T14:42:53.994Z,511.88
2018-09-03T14:45:53.955Z,511.88
2018-09-03T14:48:53.905Z,618.75
2018-09-03T14:51:53.960Z,765.00
2018-09-03T14:54:53.850Z,714.38
2018-09-03T14:57:53.835Z,720.00
2018-09-03T15:00:53.957Z,843.75
2018-09-03T15:03:53.833Z,866.25
2018-09-03T15:06:53.799Z,849.38
2018-09-03T15:09:53.752Z,922.50
2018-09-03T15:12:53.669Z,781.88
2018-09-03T15:15:53.830Z,787.50
2018-09-03T15:18:53.624Z,821.25
2018-09-03T15:21:53.638Z,748.12
2018-09-03T15:24:53.554Z,810.00
2018-09-03T15:27:53.812Z,894.38
2018-09-03T15:30:53.472Z,978.75
2018-09-03T15:33:53.548Z,871.88
2018-09-03T15:37:02.178Z,748.12
2018-09-03T15:39:58.771Z,680.62
2018-09-03T15:42:53.375Z,613.12
2018-09-03T15:45:54.230Z,511.88
2018-09-03T15:48:55.231Z,427.50
2018-09-03T15:51:53.314Z,410.62
2018-09-03T15:54:54.225Z,416.25
2018-09-03T15:57:53.629Z,388.12
2018-09-03T16:00:55.852Z,382.50
2018-09-03T16:05:03.557Z,382.50
2018-09-03T16:08:04.331Z,376.88
2018-09-03T16:11:03.184Z,410.62
2018-09-03T16:14:02.916Z,416.25
2018-09-03T16:17:02.955Z,393.75
2018-09-03T16:20:03.262Z,343.12
2018-09-03T16:23:03.549Z,303.75
2018-09-03T16:26:03.646Z,253.12
2018-09-03T16:29:04.600Z,208.12
2018-09-03T16:33:11.661Z,202.50
2018-09-03T16:36:12.092Z,196.88
2018-09-03T16:39:11.606Z,196.88
2018-09-03T16:42:11.576Z,185.62
2018-09-03T16:45:11.531Z,163.12
2018-09-03T16:48:11.516Z,168.75
2018-09-03T16:51:11.460Z,174.38
2018-09-03T16:54:11.462Z,168.75
2018-09-03T16:57:11.402Z,180.00
2018-09-03T17:00:11.387Z,174.38
2018-09-03T17:03:11.342Z,135.00
2018-09-03T17:06:11.349Z,106.88
2018-09-03T17:09:11.265Z,84.38
2018-09-03T17:12:11.276Z,90.00
2018-09-03T17:15:11.221Z,78.75
2018-09-03T17:18:11.193Z,73.12
2018-09-03T17:21:11.143Z,56.25
2018-09-03T17:24:11.140Z,50.62
2018-09-03T17:27:11.147Z,39.38
2018-09-03T17:30:11.043Z,39.38
2018-09-03T17:33:11.139Z,39.38
2018-09-03T17:36:10.981Z,28.12
2018-09-03T17:39:10.974Z,28.12
2018-09-03T17:42:10.925Z,22.50
2018-09-03T17:45:10.895Z,16.88
2018-09-03T17:48:10.867Z,11.25
2018-09-03T17:51:10.832Z,11.25
2018-09-03T17:54:10.791Z,11.25
2018-09-03T17:57:10.784Z,5.62
2018-09-03T18:00:10.756Z,5.62
2018-09-03T18:03:10.683Z,0.00
2018-09-03T18:06:10.662Z,0.00
2018-09-03T18:09:10.618Z,0.00
2018-09-03T18:12:10.587Z,0.00
2018-09-03T18:15:10.551Z,0.00
2018-09-03T18:18:10.525Z,0.00
2018-09-03T18:21:10.475Z,0.00
2018-09-03T18:24:10.458Z,0.00
2018-09-03T18:27:10.449Z,0.00
2018-09-03T18:30:10.447Z,0.00
2018-09-03T18:33:10.339Z,0.00
2018-09-03T18:36:10.338Z,0.00
2018-09-03T18:39:10.276Z,0.00
2018-09-03T18:42:10.256Z,0.00
2018-09-03T18:45:10.202Z,0.00
2018-09-03T18:48:10.196Z,0.00
2018-09-03T18:51:10.142Z,0.00
2018-09-03T18:54:10.141Z,0.00
2018-09-03T18:57:10.079Z,0.00
2018-09-03T19:00:10.109Z,0.00
2018-09-03T19:03:10.012Z,0.00
2018-09-03T19:06:10.070Z,0.00
2018-09-03T19:09:09.942Z,0.00
2018-09-03T19:12:09.937Z,0.00
2018-09-03T19:15:09.868Z,0.00
2018-09-03T19:18:09.861Z,0.00
2018-09-03T19:21:09.810Z,0.00
2018-09-03T19:24:09.788Z,0.00
2018-09-03T19:27:09.743Z,0.00
2018-09-03T19:30:09.713Z,0.00
2018-09-03T19:33:09.668Z,0.00
2018-09-03T19:36:09.665Z,0.00
2018-09-03T19:39:09.599Z,0.00
2018-09-03T19:42:09.610Z,0.00
2018-09-03T19:45:09.538Z,0.00
2018-09-03T19:48:09.514Z,0.00
2018-09-03T19:51:09.466Z,0.00
2018-09-03T19:54:09.465Z,0.00
2018-09-03T19:57:09.415Z,0.00
2018-09-03T20:00:09.398Z,0.00
2018-09-03T20:03:09.338Z,0.00
2018-09-03T20:06:09.329Z,0.00
2018-09-03T20:09:09.273Z,0.00
2018-09-03T20:12:09.270Z,0.00
2018-09-03T20:15:09.201Z,0.00
2018-09-03T20:18:09.207Z,0.00
2018-09-03T20:21:09.140Z,0.00
2018-09-03T20:24:09.121Z,0.00
2018-09-03T20:27:09.068Z,0.00
2018-09-03T20:30:09.069Z,0.00
2018-09-03T20:33:09.004Z,0.00
2018-09-03T20:36:08.996Z,0.00
2018-09-03T20:39:08.933Z,0.00
2018-09-03T20:42:08.935Z,0.00
2018-09-03T20:45:09.581Z,0.00
2018-09-03T20:48:08.866Z,0.00
2018-09-03T20:51:08.812Z,0.00
2018-09-03T20:54:08.786Z,0.00
2018-09-03T20:57:08.751Z,0.00
2018-09-03T21:00:08.712Z,0.00
2018-09-03T21:03:08.678Z,0.00
2018-09-03T21:06:08.660Z,0.00
2018-09-03T21:09:08.608Z,0.00
2018-09-03T21:12:08.575Z,0.00
2018-09-03T21:15:08.547Z,0.00
2018-09-03T21:18:08.516Z,0.00
2018-09-03T21:21:08.484Z,0.00
2018-09-03T21:24:08.440Z,0.00
2018-09-03T21:27:08.418Z,0.00
2018-09-03T21:30:08.402Z,0.00
2018-09-03T21:33:08.336Z,0.00
2018-09-03T21:36:08.311Z,0.00
2018-09-03T21:39:08.325Z,0.00
2018-09-03T21:42:08.266Z,0.00
2018-09-03T21:45:08.209Z,0.00
2018-09-03T21:48:08.179Z,0.00
2018-09-03T21:51:08.149Z,0.00
2018-09-03T21:54:08.124Z,0.00
2018-09-03T21:57:08.196Z,0.00
2018-09-03T22:00:08.048Z,0.00
2018-09-03T22:03:08.004Z,0.00
2018-09-03T22:06:07.992Z,0.00
2018-09-03T22:09:07.952Z,0.00
2018-09-03T22:12:07.918Z,0.00
2018-09-03T22:15:07.874Z,0.00
2018-09-03T22:18:07.876Z,0.00
2018-09-03T22:21:07.798Z,0.00
2018-09-03T22:24:07.772Z,0.00
2018-09-03T22:27:07.736Z,0.00
2018-09-03T22:30:07.715Z,0.00
2018-09-03T22:33:07.680Z,0.00
2018-09-03T22:36:07.642Z,0.00
2018-09-03T22:39:07.606Z,0.00
2018-09-03T22:42:07.588Z,0.00
2018-09-03T22:45:07.529Z,0.00
2018-09-03T22:48:07.514Z,0.00
2018-09-03T22:51:07.468Z,0.00
2018-09-03T22:54:07.466Z,0.00
2018-09-03T22:57:07.390Z,0.00
2018-09-03T23:00:07.381Z,0.00
2018-09-03T23:03:07.325Z,0.00
2018-09-03T23:06:07.315Z,0.00
2018-09-03T23:09:07.267Z,0.00
2018-09-03T23:12:07.245Z,0.00
2018-09-03T23:15:07.189Z,0.00
2018-09-03T23:18:07.197Z,0.00
2018-09-03T23:21:07.123Z,0.00
2018-09-03T23:24:07.118Z,0.00
2018-09-03T23:27:07.067Z,0.00
2018-09-03T23:30:07.046Z,0.00
2018-09-03T23:33:06.986Z,0.00
2018-09-03T23:36:06.982Z,0.00
2018-09-03T23:39:06.924Z,0.00
2018-09-03T23:42:06.930Z,0.00
2018-09-03T23:45:06.853Z,0.00
2018-09-03T23:48:06.841Z,0.00
2018-09-03T23:51:06.802Z,0.00
2018-09-03T23:54:06.792Z,0.00
2018-09-03T23:57:06.746Z,0.00
